sensor_id;sensor_type;location;lat;lon;timestamp;pressure;altitude;pressure_sealevel;temperature;humidity
71145;BME280;58812;47.698;17.726;2022-08-14T00:00:08;99713.38;;;18.89;80.40
71145;BME280;58812;47.698;17.726;2022-08-14T00:02:34;99711.72;;;18.88;80.65
71145;BME280;58812;47.698;17.726;2022-08-14T00:05:00;99708.41;;;18.86;80.73
71145;BME280;58812;47.698;17.726;2022-08-14T00:07:25;99710.47;;;18.84;81.17
71145;BME280;58812;47.698;17.726;2022-08-14T00:09:50;99703.19;;;18.84;81.47
71145;BME280;58812;47.698;17.726;2022-08-14T00:12:17;99705.69;;;18.86;81.14
71145;BME280;58812;47.698;17.726;2022-08-14T00:14:43;99700.47;;;18.84;81.49
71145;BME280;58812;47.698;17.726;2022-08-14T00:17:08;99708.19;;;18.87;80.92
71145;BME280;58812;47.698;17.726;2022-08-14T00:19:34;99706.31;;;18.88;81.79
71145;BME280;58812;47.698;17.726;2022-08-14T00:21:59;99704.22;;;18.83;81.71
71145;BME280;58812;47.698;17.726;2022-08-14T00:24:24;99706.34;;;18.81;82.05
71145;BME280;58812;47.698;17.726;2022-08-14T00:26:50;99699.25;;;18.74;82.32
71145;BME280;58812;47.698;17.726;2022-08-14T00:29:15;99699.69;;;18.71;82.75
71145;BME280;58812;47.698;17.726;2022-08-14T00:31:41;99700.97;;;18.68;82.87
71145;BME280;58812;47.698;17.726;2022-08-14T00:34:06;99698.84;;;18.70;82.46
71145;BME280;58812;47.698;17.726;2022-08-14T00:36:32;99680.28;;;18.60;82.95
71145;BME280;58812;47.698;17.726;2022-08-14T00:38:57;99681.31;;;18.66;82.47
71145;BME280;58812;47.698;17.726;2022-08-14T00:41:29;99695.09;;;18.58;83.25
71145;BME280;58812;47.698;17.726;2022-08-14T00:43:55;99690.28;;;18.60;82.92
71145;BME280;58812;47.698;17.726;2022-08-14T00:46:20;99683.00;;;18.54;83.08
71145;BME280;58812;47.698;17.726;2022-08-14T00:48:46;99689.91;;;18.50;83.64
71145;BME280;58812;47.698;17.726;2022-08-14T00:51:12;99690.13;;;18.48;83.77
71145;BME280;58812;47.698;17.726;2022-08-14T00:53:38;99688.25;;;18.35;85.40
71145;BME280;58812;47.698;17.726;2022-08-14T00:56:05;99701.81;;;18.35;84.68
71145;BME280;58812;47.698;17.726;2022-08-14T00:58:32;99689.31;;;18.34;84.86
71145;BME280;58812;47.698;17.726;2022-08-14T01:01:00;99698.50;;;18.33;85.47
71145;BME280;58812;47.698;17.726;2022-08-14T01:03:26;99701.22;;;18.33;85.04
71145;BME280;58812;47.698;17.726;2022-08-14T01:05:57;99697.25;;;18.29;85.35
71145;BME280;58812;47.698;17.726;2022-08-14T01:08:25;99709.75;;;18.24;86.74
71145;BME280;58812;47.698;17.726;2022-08-14T01:10:53;99703.50;;;18.23;86.37
71145;BME280;58812;47.698;17.726;2022-08-14T01:15:52;99706.63;;;18.20;86.51
71145;BME280;58812;47.698;17.726;2022-08-14T01:18:19;99696.00;;;18.19;86.45
71145;BME280;58812;47.698;17.726;2022-08-14T01:21:05;99696.00;;;18.12;87.35
71145;BME280;58812;47.698;17.726;2022-08-14T01:23:39;99699.53;;;18.12;87.33
71145;BME280;58812;47.698;17.726;2022-08-14T01:26:05;99699.75;;;18.11;87.23
71145;BME280;58812;47.698;17.726;2022-08-14T01:28:31;99697.28;;;18.03;88.27
71145;BME280;58812;47.698;17.726;2022-08-14T01:31:00;99690.38;;;17.94;88.87
71145;BME280;58812;47.698;17.726;2022-08-14T01:33:27;99694.34;;;17.91;89.90
71145;BME280;58812;47.698;17.726;2022-08-14T01:35:58;99694.16;;;17.86;89.91
71145;BME280;58812;47.698;17.726;2022-08-14T01:38:27;99695.59;;;17.88;89.38
71145;BME280;58812;47.698;17.726;2022-08-14T01:41:05;99704.75;;;17.87;89.42
71145;BME280;58812;47.698;17.726;2022-08-14T01:43:32;99706.84;;;17.85;89.53
71145;BME280;58812;47.698;17.726;2022-08-14T01:46:04;99704.31;;;17.91;89.33
71145;BME280;58812;47.698;17.726;2022-08-14T01:48:37;99699.34;;;17.87;90.18
71145;BME280;58812;47.698;17.726;2022-08-14T01:51:03;99701.00;;;17.88;89.07
71145;BME280;58812;47.698;17.726;2022-08-14T01:53:28;99706.41;;;17.82;91.30
71145;BME280;58812;47.698;17.726;2022-08-14T01:55:58;99702.44;;;17.84;90.59
71145;BME280;58812;47.698;17.726;2022-08-14T01:58:27;99703.09;;;17.86;90.46
71145;BME280;58812;47.698;17.726;2022-08-14T02:00:54;99702.28;;;17.93;90.25
71145;BME280;58812;47.698;17.726;2022-08-14T02:03:30;99702.28;;;17.93;90.85
71145;BME280;58812;47.698;17.726;2022-08-14T02:06:00;99704.31;;;17.91;90.59
71145;BME280;58812;47.698;17.726;2022-08-14T02:08:27;99700.19;;;17.95;90.20
71145;BME280;58812;47.698;17.726;2022-08-14T02:10:55;99707.03;;;17.91;91.18
71145;BME280;58812;47.698;17.726;2022-08-14T02:13:40;99700.19;;;17.88;91.26
71145;BME280;58812;47.698;17.726;2022-08-14T02:16:09;99701.22;;;17.94;90.34
71145;BME280;58812;47.698;17.726;2022-08-14T02:18:34;99703.50;;;17.83;90.70
71145;BME280;58812;47.698;17.726;2022-08-14T02:21:01;99707.25;;;17.82;91.24
71145;BME280;58812;47.698;17.726;2022-08-14T02:23:29;99713.50;;;17.83;90.79
71145;BME280;58812;47.698;17.726;2022-08-14T02:25:55;99707.47;;;17.87;91.05
71145;BME280;58812;47.698;17.726;2022-08-14T02:28:21;99708.09;;;17.89;91.17
71145;BME280;58812;47.698;17.726;2022-08-14T02:30:47;99703.09;;;17.93;91.05
71145;BME280;58812;47.698;17.726;2022-08-14T02:33:13;99703.94;;;17.94;90.48
71145;BME280;58812;47.698;17.726;2022-08-14T02:35:40;99704.75;;;17.94;90.73
71145;BME280;58812;47.698;17.726;2022-08-14T02:38:06;99706.84;;;17.92;91.17
71145;BME280;58812;47.698;17.726;2022-08-14T02:40:32;99707.69;;;17.93;91.47
71145;BME280;58812;47.698;17.726;2022-08-14T02:42:58;99705.59;;;17.95;91.14
71145;BME280;58812;47.698;17.726;2022-08-14T02:45:24;99707.25;;;17.89;91.49
71145;BME280;58812;47.698;17.726;2022-08-14T02:47:53;99703.72;;;17.82;91.74
71145;BME280;58812;47.698;17.726;2022-08-14T02:50:18;99698.91;;;17.77;91.90
71145;BME280;58812;47.698;17.726;2022-08-14T02:52:44;99698.91;;;17.77;91.63
71145;BME280;58812;47.698;17.726;2022-08-14T02:55:09;99697.25;;;17.76;92.12
71145;BME280;58812;47.698;17.726;2022-08-14T02:57:35;99699.56;;;17.79;92.45
71145;BME280;58812;47.698;17.726;2022-08-14T03:00:04;99711.41;;;17.78;92.12
71145;BME280;58812;47.698;17.726;2022-08-14T03:02:29;99705.81;;;17.73;93.08
71145;BME280;58812;47.698;17.726;2022-08-14T03:04:57;99708.66;;;17.65;94.29
71145;BME280;58812;47.698;17.726;2022-08-14T03:07:23;99713.03;;;17.66;94.17
71145;BME280;58812;47.698;17.726;2022-08-14T03:09:49;99701.81;;;17.69;93.47
71145;BME280;58812;47.698;17.726;2022-08-14T03:12:15;99711.59;;;17.70;93.46
71145;BME280;58812;47.698;17.726;2022-08-14T03:14:40;99709.53;;;17.72;92.75
71145;BME280;58812;47.698;17.726;2022-08-14T03:17:13;99718.03;;;17.69;93.24
71145;BME280;58812;47.698;17.726;2022-08-14T03:19:40;99710.97;;;17.68;93.14
71145;BME280;58812;47.698;17.726;2022-08-14T03:22:05;99709.69;;;17.64;93.42
71145;BME280;58812;47.698;17.726;2022-08-14T03:24:31;99709.50;;;17.66;93.42
71145;BME280;58812;47.698;17.726;2022-08-14T03:26:56;99714.91;;;17.59;94.01
71145;BME280;58812;47.698;17.726;2022-08-14T03:29:22;99712.63;;;17.56;94.13
71145;BME280;58812;47.698;17.726;2022-08-14T03:31:48;99713.63;;;17.55;94.84
71145;BME280;58812;47.698;17.726;2022-08-14T03:34:15;99713.44;;;17.56;94.44
71145;BME280;58812;47.698;17.726;2022-08-14T03:36:41;99717.38;;;17.54;94.84
71145;BME280;58812;47.698;17.726;2022-08-14T03:39:10;99715.50;;;17.54;94.26
71145;BME280;58812;47.698;17.726;2022-08-14T03:41:36;99715.72;;;17.53;94.49
71145;BME280;58812;47.698;17.726;2022-08-14T03:44:04;99718.03;;;17.56;93.96
71145;BME280;58812;47.698;17.726;2022-08-14T03:46:32;99711.97;;;17.54;93.97
71145;BME280;58812;47.698;17.726;2022-08-14T03:48:59;99718.41;;;17.53;94.03
71145;BME280;58812;47.698;17.726;2022-08-14T03:51:28;99723.44;;;17.49;94.09
71145;BME280;58812;47.698;17.726;2022-08-14T03:53:56;99719.25;;;17.47;93.81
71145;BME280;58812;47.698;17.726;2022-08-14T03:56:22;99723.00;;;17.46;93.81
71145;BME280;58812;47.698;17.726;2022-08-14T03:58:51;99719.25;;;17.47;94.18
71145;BME280;58812;47.698;17.726;2022-08-14T04:01:18;99721.94;;;17.47;94.60
71145;BME280;58812;47.698;17.726;2022-08-14T04:03:46;99723.62;;;17.48;94.93
71145;BME280;58812;47.698;17.726;2022-08-14T04:06:11;99724.25;;;17.50;94.18
71145;BME280;58812;47.698;17.726;2022-08-14T04:08:38;99722.19;;;17.52;94.43
71145;BME280;58812;47.698;17.726;2022-08-14T04:11:06;99717.38;;;17.54;94.48
71145;BME280;58812;47.698;17.726;2022-08-14T04:13:33;99722.19;;;17.52;95.73
71145;BME280;58812;47.698;17.726;2022-08-14T04:16:21;99715.50;;;17.54;95.41
71145;BME280;58812;47.698;17.726;2022-08-14T04:18:48;99719.69;;;17.57;95.21
71145;BME280;58812;47.698;17.726;2022-08-14T04:21:15;99714.28;;;17.70;94.64
71145;BME280;58812;47.698;17.726;2022-08-14T04:23:42;99710.19;;;17.81;94.18
71145;BME280;58812;47.698;17.726;2022-08-14T04:26:11;99720.19;;;18.00;93.44
71145;BME280;58812;47.698;17.726;2022-08-14T04:28:39;99716.00;;;18.24;91.74
71145;BME280;58812;47.698;17.726;2022-08-14T04:31:04;99707.22;;;18.49;90.59
71145;BME280;58812;47.698;17.726;2022-08-14T04:33:30;99714.28;;;18.63;89.72
71145;BME280;58812;47.698;17.726;2022-08-14T04:35:56;99713.41;;;18.82;88.65
71145;BME280;58812;47.698;17.726;2022-08-14T04:38:21;99720.91;;;18.93;88.07
71145;BME280;58812;47.698;17.726;2022-08-14T04:41:06;99718.72;;;19.09;87.37
71145;BME280;58812;47.698;17.726;2022-08-14T04:43:50;99722.81;;;19.31;86.22
71145;BME280;58812;47.698;17.726;2022-08-14T04:46:19;99724.38;;;19.52;85.36
71145;BME280;58812;47.698;17.726;2022-08-14T04:48:45;99726.44;;;19.63;84.78
71145;BME280;58812;47.698;17.726;2022-08-14T04:51:12;99719.31;;;19.56;85.38
71145;BME280;58812;47.698;17.726;2022-08-14T04:53:39;99729.84;;;19.84;84.29
71145;BME280;58812;47.698;17.726;2022-08-14T04:56:13;99720.75;;;19.96;83.34
71145;BME280;58812;47.698;17.726;2022-08-14T04:58:40;99724.03;;;20.05;83.04
71145;BME280;58812;47.698;17.726;2022-08-14T05:01:08;99728.06;;;20.21;82.50
71145;BME280;58812;47.698;17.726;2022-08-14T05:03:35;99727.59;;;20.06;82.51
71145;BME280;58812;47.698;17.726;2022-08-14T05:06:04;99727.06;;;20.40;81.47
71145;BME280;58812;47.698;17.726;2022-08-14T05:08:31;99728.09;;;20.46;81.34
71145;BME280;58812;47.698;17.726;2022-08-14T05:10:58;99726.06;;;20.60;80.64
71145;BME280;58812;47.698;17.726;2022-08-14T05:13:26;99722.81;;;20.69;80.06
71145;BME280;58812;47.698;17.726;2022-08-14T05:15:53;99715.78;;;20.80;79.20
71145;BME280;58812;47.698;17.726;2022-08-14T05:18:22;99721.41;;;20.85;79.12
71145;BME280;58812;47.698;17.726;2022-08-14T05:20:50;99722.66;;;21.19;77.96
71145;BME280;58812;47.698;17.726;2022-08-14T05:23:18;99716.25;;;21.32;77.35
71145;BME280;58812;47.698;17.726;2022-08-14T05:25:45;99717.53;;;21.59;76.20
71145;BME280;58812;47.698;17.726;2022-08-14T05:28:17;99713.47;;;21.50;76.15
71145;BME280;58812;47.698;17.726;2022-08-14T05:31:07;99723.25;;;21.70;75.69
71145;BME280;58812;47.698;17.726;2022-08-14T05:33:33;99721.34;;;21.58;75.32
71145;BME280;58812;47.698;17.726;2022-08-14T05:36:01;99712.03;;;21.78;75.27
71145;BME280;58812;47.698;17.726;2022-08-14T05:38:34;99713.59;;;21.97;74.04
71145;BME280;58812;47.698;17.726;2022-08-14T05:41:04;99707.62;;;22.30;73.20
71145;BME280;58812;47.698;17.726;2022-08-14T05:43:30;99711.75;;;22.09;73.86
71145;BME280;58812;47.698;17.726;2022-08-14T05:45:57;99720.44;;;22.53;71.98
71145;BME280;58812;47.698;17.726;2022-08-14T05:48:23;99722.69;;;22.33;72.64
71145;BME280;58812;47.698;17.726;2022-08-14T05:50:50;99724.31;;;22.22;73.21
71145;BME280;58812;47.698;17.726;2022-08-14T05:53:16;99723.25;;;22.35;72.21
71145;BME280;58812;47.698;17.726;2022-08-14T05:55:42;99718.75;;;22.40;71.98
71145;BME280;58812;47.698;17.726;2022-08-14T05:58:08;99731.69;;;22.92;70.42
71145;BME280;58812;47.698;17.726;2022-08-14T06:00:37;99724.19;;;22.76;70.72
71145;BME280;58812;47.698;17.726;2022-08-14T06:03:05;99722.28;;;23.00;69.90
71145;BME280;58812;47.698;17.726;2022-08-14T06:05:31;99719.53;;;23.40;68.53
71145;BME280;58812;47.698;17.726;2022-08-14T06:07:57;99728.19;;;23.20;69.12
71145;BME280;58812;47.698;17.726;2022-08-14T06:10:23;99726.47;;;23.59;67.48
71145;BME280;58812;47.698;17.726;2022-08-14T06:12:49;99723.53;;;23.78;66.55
71145;BME280;58812;47.698;17.726;2022-08-14T06:15:14;99731.31;;;24.14;65.65
71145;BME280;58812;47.698;17.726;2022-08-14T06:20:10;99721.88;;;24.39;64.61
71145;BME280;58812;47.698;17.726;2022-08-14T06:22:35;99724.59;;;24.56;64.09
71145;BME280;58812;47.698;17.726;2022-08-14T06:25:01;99715.22;;;24.35;63.79
71145;BME280;58812;47.698;17.726;2022-08-14T06:27:26;99719.03;;;24.34;63.57
71145;BME280;58812;47.698;17.726;2022-08-14T06:29:51;99719.13;;;24.39;63.86
71145;BME280;58812;47.698;17.726;2022-08-14T06:32:17;99718.44;;;24.48;63.33
71145;BME280;58812;47.698;17.726;2022-08-14T06:34:42;99714.97;;;24.19;64.39
71145;BME280;58812;47.698;17.726;2022-08-14T06:37:08;99714.34;;;24.90;62.48
71145;BME280;58812;47.698;17.726;2022-08-14T06:39:33;99711.47;;;24.96;61.53
71145;BME280;58812;47.698;17.726;2022-08-14T06:41:59;99712.34;;;25.46;60.60
71145;BME280;58812;47.698;17.726;2022-08-14T06:44:25;99719.78;;;25.50;59.77
71145;BME280;58812;47.698;17.726;2022-08-14T06:46:50;99716.41;;;24.39;62.20
71145;BME280;58812;47.698;17.726;2022-08-14T06:49:15;99712.88;;;25.21;59.66
71145;BME280;58812;47.698;17.726;2022-08-14T06:51:41;99724.94;;;24.81;60.54
71145;BME280;58812;47.698;17.726;2022-08-14T06:54:11;99723.03;;;24.82;61.32
71145;BME280;58812;47.698;17.726;2022-08-14T06:56:37;99724.53;;;25.60;58.99
71145;BME280;58812;47.698;17.726;2022-08-14T06:59:03;99715.59;;;25.97;57.80
71145;BME280;58812;47.698;17.726;2022-08-14T07:01:29;99719.47;;;25.25;59.07
71145;BME280;58812;47.698;17.726;2022-08-14T07:04:13;99715.41;;;25.76;57.86
71145;BME280;58812;47.698;17.726;2022-08-14T07:06:57;99720.00;;;25.71;57.84
71145;BME280;58812;47.698;17.726;2022-08-14T07:09:22;99714.22;;;25.94;57.19
71145;BME280;58812;47.698;17.726;2022-08-14T07:11:48;99715.88;;;26.32;55.89
71145;BME280;58812;47.698;17.726;2022-08-14T07:14:14;99718.22;;;26.46;55.30
71145;BME280;58812;47.698;17.726;2022-08-14T07:16:39;99719.28;;;26.87;54.57
71145;BME280;58812;47.698;17.726;2022-08-14T07:19:05;99718.34;;;26.71;54.50
71145;BME280;58812;47.698;17.726;2022-08-14T07:21:33;99722.62;;;26.99;54.33
71145;BME280;58812;47.698;17.726;2022-08-14T07:23:58;99717.00;;;26.74;55.32
71145;BME280;58812;47.698;17.726;2022-08-14T07:26:23;99710.50;;;26.43;56.30
71145;BME280;58812;47.698;17.726;2022-08-14T07:28:49;99718.66;;;26.37;55.04
71145;BME280;58812;47.698;17.726;2022-08-14T07:31:14;99708.25;;;27.50;53.06
71145;BME280;58812;47.698;17.726;2022-08-14T07:33:48;99724.84;;;27.85;51.89
71145;BME280;58812;47.698;17.726;2022-08-14T07:36:15;99725.41;;;27.82;51.04
71145;BME280;58812;47.698;17.726;2022-08-14T07:38:41;99716.03;;;28.04;50.40
71145;BME280;58812;47.698;17.726;2022-08-14T07:41:09;99716.63;;;28.11;50.81
71145;BME280;58812;47.698;17.726;2022-08-14T07:43:36;99718.25;;;28.22;50.27
71145;BME280;58812;47.698;17.726;2022-08-14T07:46:03;99718.78;;;28.60;48.84
71145;BME280;58812;47.698;17.726;2022-08-14T07:48:28;99714.59;;;28.88;48.47
71145;BME280;58812;47.698;17.726;2022-08-14T07:50:54;99715.47;;;29.43;47.63
71145;BME280;58812;47.698;17.726;2022-08-14T07:53:20;99724.22;;;28.85;47.94
71145;BME280;58812;47.698;17.726;2022-08-14T07:55:46;99716.47;;;29.08;47.48
71145;BME280;58812;47.698;17.726;2022-08-14T07:58:13;99720.06;;;29.03;47.67
71145;BME280;58812;47.698;17.726;2022-08-14T08:00:39;99718.47;;;29.46;47.26
71145;BME280;58812;47.698;17.726;2022-08-14T08:03:06;99722.16;;;29.76;46.70
71145;BME280;58812;47.698;17.726;2022-08-14T08:05:36;99721.66;;;29.19;46.82
71145;BME280;58812;47.698;17.726;2022-08-14T08:08:03;99723.47;;;28.54;48.52
71145;BME280;58812;47.698;17.726;2022-08-14T08:10:29;99719.25;;;28.92;48.11
71145;BME280;58812;47.698;17.726;2022-08-14T08:13:05;99716.84;;;29.40;46.46
71145;BME280;58812;47.698;17.726;2022-08-14T08:15:33;99712.56;;;29.14;47.01
71145;BME280;58812;47.698;17.726;2022-08-14T08:18:01;99714.84;;;29.56;46.40
71145;BME280;58812;47.698;17.726;2022-08-14T08:20:30;99712.63;;;28.98;46.99
71145;BME280;58812;47.698;17.726;2022-08-14T08:22:56;99715.06;;;27.32;51.66
71145;BME280;58812;47.698;17.726;2022-08-14T08:25:28;99713.28;;;28.04;49.96
71145;BME280;58812;47.698;17.726;2022-08-14T08:28:03;99706.41;;;29.37;46.59
71145;BME280;58812;47.698;17.726;2022-08-14T08:30:31;99710.34;;;29.21;46.38
71145;BME280;58812;47.698;17.726;2022-08-14T08:32:59;99720.06;;;29.63;45.01
71145;BME280;58812;47.698;17.726;2022-08-14T08:35:27;99713.81;;;29.86;44.22
71145;BME280;58812;47.698;17.726;2022-08-14T08:37:59;99709.50;;;29.75;45.13
71145;BME280;58812;47.698;17.726;2022-08-14T08:40:31;99720.13;;;29.92;44.88
71145;BME280;58812;47.698;17.726;2022-08-14T08:43:06;99711.63;;;27.98;49.30
71145;BME280;58812;47.698;17.726;2022-08-14T08:45:34;99712.19;;;29.85;44.14
71145;BME280;58812;47.698;17.726;2022-08-14T08:48:00;99708.81;;;30.27;43.95
71145;BME280;58812;47.698;17.726;2022-08-14T08:50:30;99717.31;;;29.03;45.96
71145;BME280;58812;47.698;17.726;2022-08-14T08:52:58;99718.25;;;29.82;44.79
71145;BME280;58812;47.698;17.726;2022-08-14T08:55:38;99713.38;;;31.19;41.77
71145;BME280;58812;47.698;17.726;2022-08-14T08:58:08;99706.84;;;31.90;39.87
71145;BME280;58812;47.698;17.726;2022-08-14T09:00:35;99715.28;;;31.19;41.49
71145;BME280;58812;47.698;17.726;2022-08-14T09:03:11;99703.03;;;30.82;42.01
71145;BME280;58812;47.698;17.726;2022-08-14T09:08:20;99697.00;;;31.23;41.76
71145;BME280;58812;47.698;17.726;2022-08-14T09:10:46;99700.16;;;30.39;43.97
71145;BME280;58812;47.698;17.726;2022-08-14T09:13:14;99696.09;;;30.84;42.64
71145;BME280;58812;47.698;17.726;2022-08-14T09:15:45;99700.19;;;31.11;41.42
71145;BME280;58812;47.698;17.726;2022-08-14T09:18:12;99684.31;;;31.59;40.31
71145;BME280;58812;47.698;17.726;2022-08-14T09:20:40;99686.69;;;31.66;40.73
71145;BME280;58812;47.698;17.726;2022-08-14T09:23:10;99682.16;;;30.71;41.61
71145;BME280;58812;47.698;17.726;2022-08-14T09:25:37;99679.50;;;31.08;41.48
71145;BME280;58812;47.698;17.726;2022-08-14T09:28:05;99685.97;;;30.75;41.19
71145;BME280;58812;47.698;17.726;2022-08-14T09:30:34;99682.31;;;30.26;42.54
71145;BME280;58812;47.698;17.726;2022-08-14T09:46:37;99688.13;;;32.34;37.92
71145;BME280;58812;47.698;17.726;2022-08-14T09:49:04;99683.53;;;29.32;43.72
71145;BME280;58812;47.698;17.726;2022-08-14T09:51:31;99684.72;;;29.65;43.75
71145;BME280;58812;47.698;17.726;2022-08-14T09:54:01;99698.91;;;31.03;40.89
71145;BME280;58812;47.698;17.726;2022-08-14T09:56:27;99687.91;;;30.98;40.51
71145;BME280;58812;47.698;17.726;2022-08-14T09:58:52;99683.34;;;31.88;38.88
71145;BME280;58812;47.698;17.726;2022-08-14T10:01:19;99674.94;;;30.75;41.02
71145;BME280;58812;47.698;17.726;2022-08-14T10:03:54;99681.09;;;31.71;39.72
71145;BME280;58812;47.698;17.726;2022-08-14T10:06:23;99679.75;;;31.87;38.97
71145;BME280;58812;47.698;17.726;2022-08-14T10:11:29;99675.16;;;31.02;41.66
71145;BME280;58812;47.698;17.726;2022-08-14T10:14:09;99665.84;;;30.93;41.65
71145;BME280;58812;47.698;17.726;2022-08-14T10:16:41;99664.31;;;32.33;38.30
71145;BME280;58812;47.698;17.726;2022-08-14T10:19:08;99664.72;;;31.75;38.54
71145;BME280;58812;47.698;17.726;2022-08-14T10:21:36;99669.69;;;30.97;40.29
71145;BME280;58812;47.698;17.726;2022-08-14T10:24:02;99675.25;;;32.57;37.02
71145;BME280;58812;47.698;17.726;2022-08-14T10:26:33;99669.00;;;30.57;39.77
71145;BME280;58812;47.698;17.726;2022-08-14T10:29:07;99668.66;;;30.40;38.85
71145;BME280;58812;47.698;17.726;2022-08-14T10:31:34;99666.81;;;31.83;36.78
71145;BME280;58812;47.698;17.726;2022-08-14T10:34:10;99664.34;;;32.60;35.43
71145;BME280;58812;47.698;17.726;2022-08-14T10:36:38;99662.19;;;32.85;36.93
71145;BME280;58812;47.698;17.726;2022-08-14T10:39:07;99664.66;;;32.45;37.42
71145;BME280;58812;47.698;17.726;2022-08-14T10:41:41;99662.66;;;32.32;37.37
71145;BME280;58812;47.698;17.726;2022-08-14T10:44:08;99662.50;;;31.39;39.00
71145;BME280;58812;47.698;17.726;2022-08-14T10:46:39;99650.81;;;30.80;40.32
71145;BME280;58812;47.698;17.726;2022-08-14T10:49:05;99664.38;;;31.44;39.78
71145;BME280;58812;47.698;17.726;2022-08-14T10:51:33;99657.06;;;32.04;37.74
71145;BME280;58812;47.698;17.726;2022-08-14T10:54:04;99649.53;;;32.37;37.42
71145;BME280;58812;47.698;17.726;2022-08-14T10:56:32;99644.25;;;32.68;36.40
71145;BME280;58812;47.698;17.726;2022-08-14T10:59:05;99653.88;;;32.85;36.08
71145;BME280;58812;47.698;17.726;2022-08-14T11:01:34;99645.38;;;32.95;35.56
71145;BME280;58812;47.698;17.726;2022-08-14T11:04:00;99645.94;;;33.19;34.79
71145;BME280;58812;47.698;17.726;2022-08-14T11:06:27;99643.13;;;33.47;34.09
71145;BME280;58812;47.698;17.726;2022-08-14T11:08:54;99630.84;;;33.12;34.75
71145;BME280;58812;47.698;17.726;2022-08-14T11:11:20;99638.78;;;33.05;35.33
71145;BME280;58812;47.698;17.726;2022-08-14T11:13:47;99633.69;;;32.10;36.26
71145;BME280;58812;47.698;17.726;2022-08-14T11:16:15;99636.53;;;32.65;35.81
71145;BME280;58812;47.698;17.726;2022-08-14T11:18:46;99623.81;;;30.96;38.27
71145;BME280;58812;47.698;17.726;2022-08-14T11:21:15;99624.28;;;30.02;39.71
71145;BME280;58812;47.698;17.726;2022-08-14T11:23:44;99639.19;;;31.97;37.06
71145;BME280;58812;47.698;17.726;2022-08-14T11:26:14;99625.06;;;32.12;36.16
71145;BME280;58812;47.698;17.726;2022-08-14T11:28:45;99628.22;;;31.73;36.65
71145;BME280;58812;47.698;17.726;2022-08-14T11:31:11;99611.66;;;30.49;38.54
71145;BME280;58812;47.698;17.726;2022-08-14T11:33:40;99611.87;;;30.29;39.01
71145;BME280;58812;47.698;17.726;2022-08-14T11:36:07;99613.19;;;30.61;38.40
71145;BME280;58812;47.698;17.726;2022-08-14T11:38:38;99614.06;;;30.03;39.74
71145;BME280;58812;47.698;17.726;2022-08-14T11:41:05;99614.41;;;30.49;39.25
71145;BME280;58812;47.698;17.726;2022-08-14T11:43:31;99608.00;;;31.72;36.96
71145;BME280;58812;47.698;17.726;2022-08-14T11:46:02;99603.38;;;30.49;38.42
71145;BME280;58812;47.698;17.726;2022-08-14T11:48:27;99598.31;;;30.99;38.64
71145;BME280;58812;47.698;17.726;2022-08-14T11:50:53;99607.06;;;31.82;36.26
71145;BME280;58812;47.698;17.726;2022-08-14T11:53:25;99604.31;;;31.96;35.67
71145;BME280;58812;47.698;17.726;2022-08-14T11:56:04;99613.44;;;32.56;34.22
71145;BME280;58812;47.698;17.726;2022-08-14T11:58:32;99606.22;;;32.28;34.18
71145;BME280;58812;47.698;17.726;2022-08-14T12:01:04;99593.31;;;32.37;34.95
71145;BME280;58812;47.698;17.726;2022-08-14T12:06:11;99598.06;;;33.14;32.25
71145;BME280;58812;47.698;17.726;2022-08-14T12:08:37;99601.03;;;32.07;34.18
71145;BME280;58812;47.698;17.726;2022-08-14T12:11:06;99599.41;;;32.06;34.24
71145;BME280;58812;47.698;17.726;2022-08-14T12:13:32;99589.97;;;31.94;33.39
71145;BME280;58812;47.698;17.726;2022-08-14T12:16:00;99576.47;;;31.54;34.97
71145;BME280;58812;47.698;17.726;2022-08-14T12:20:56;99583.03;;;32.92;31.82
71145;BME280;58812;47.698;17.726;2022-08-14T12:23:24;99582.22;;;32.92;33.55
71145;BME280;58812;47.698;17.726;2022-08-14T12:26:04;99582.31;;;32.32;32.56
71145;BME280;58812;47.698;17.726;2022-08-14T12:28:29;99580.53;;;30.63;34.88
71145;BME280;58812;47.698;17.726;2022-08-14T12:30:55;99572.47;;;31.09;34.45
71145;BME280;58812;47.698;17.726;2022-08-14T12:35:50;99575.63;;;31.40;34.53
71145;BME280;58812;47.698;17.726;2022-08-14T12:38:16;99565.22;;;29.98;37.22
71145;BME280;58812;47.698;17.726;2022-08-14T12:40:53;99568.28;;;30.93;35.90
71145;BME280;58812;47.698;17.726;2022-08-14T12:43:19;99579.16;;;31.27;35.75
71145;BME280;58812;47.698;17.726;2022-08-14T12:45:51;99570.66;;;32.35;33.38
71145;BME280;58812;47.698;17.726;2022-08-14T12:48:21;99565.91;;;32.22;33.72
71145;BME280;58812;47.698;17.726;2022-08-14T12:50:47;99566.91;;;32.26;34.00
71145;BME280;58812;47.698;17.726;2022-08-14T12:53:18;99564.69;;;32.69;33.08
71145;BME280;58812;47.698;17.726;2022-08-14T12:55:45;99573.81;;;32.14;33.26
71145;BME280;58812;47.698;17.726;2022-08-14T12:58:11;99562.91;;;32.18;33.52
71145;BME280;58812;47.698;17.726;2022-08-14T13:00:47;99559.56;;;32.62;32.09
71145;BME280;58812;47.698;17.726;2022-08-14T13:03:27;99556.69;;;32.67;31.48
71145;BME280;58812;47.698;17.726;2022-08-14T13:05:53;99566.41;;;31.96;33.88
71145;BME280;58812;47.698;17.726;2022-08-14T13:08:19;99564.78;;;31.44;35.75
71145;BME280;58812;47.698;17.726;2022-08-14T13:10:48;99560.47;;;32.58;33.16
71145;BME280;58812;47.698;17.726;2022-08-14T13:13:17;99544.75;;;31.98;33.31
71145;BME280;58812;47.698;17.726;2022-08-14T13:15:45;99546.84;;;31.22;34.27
71145;BME280;58812;47.698;17.726;2022-08-14T13:18:13;99544.97;;;32.15;33.29
71145;BME280;58812;47.698;17.726;2022-08-14T13:20:40;99543.09;;;32.25;32.96
71145;BME280;58812;47.698;17.726;2022-08-14T13:23:07;99531.06;;;32.84;32.20
71145;BME280;58812;47.698;17.726;2022-08-14T13:25:34;99537.81;;;33.06;32.02